EW6895 Weather Reports


Display with metric or nautical units.
time (UTC)temp
F
wind
direction
speed
MPH
gust
MPH
rain 1hr
in
rain 24hr
in
rain mn
in
humidity
%
barometer
mb
20210922015314 77 1 0.0 0.0 0.00 0.00 0.00 38 1021.4
20210922014830 77 3 0.0 0.0 0.00 0.00 0.00 38 1021.3
20210922014323 78 13 0.0 0.0 0.00 0.00 0.00 37 1021.2
20210922013818 78 13 0.0 11.0 0.00 0.00 0.00 37 1021.1
20210922013315 78 350 0.0 12.0 0.00 0.00 0.00 36 1021.0
20210922012814 78 18 6.0 14.0 0.00 0.00 0.00 36 1021.0
20210922012330 78 350 8.0 13.0 0.00 0.00 0.00 36 1020.9
20210922011828 78 40 5.0 13.0 0.00 0.00 0.00 36 1020.8
20210922011320 79 4 7.0 15.0 0.00 0.00 0.00 36 1020.7
20210922010817 79 1 7.0 16.0 0.00 0.00 0.00 36 1020.6
20210922010314 79 311 8.0 16.0 0.00 0.00 0.00 36 1020.5
20210922005829 79 358 6.0 16.0 0.00 0.00 0.00 36 1020.5
20210922005330 79 272 8.0 16.0 0.00 0.00 0.00 36 1020.4
20210922004826 79 5 8.0 18.0 0.00 0.00 0.00 36 1020.3
20210922004323 79 345 7.0 18.0 0.00 0.00 0.00 35 1020.3
20210922003820 80 346 7.0 19.0 0.00 0.00 0.00 36 1020.2
20210922003317 80 23 7.0 19.0 0.00 0.00 0.00 36 1020.2
20210922002828 80 330 9.0 17.0 0.00 0.00 0.00 36 1020.1
20210922002322 80 329 8.0 15.0 0.00 0.00 0.00 36 1020.0
20210922001820 80 342 8.0 14.0 0.00 0.00 0.00 36 1019.9
20210922001315 80 3 7.0 15.0 0.00 0.00 0.00 37 1019.8
20210922000830 81 360 4.0 16.0 0.00 0.00 0.00 37 1019.7
20210922000326 81 345 6.0 16.0 0.00 0.00 0.00 36 1019.7
20210921235820 81 7 7.0 19.0 0.00 0.00 0.00 36 1019.6
20210921235316 81 5 6.0 16.0 0.00 0.00 0.00 36 1019.6
20210921234831 81 1 9.0 20.0 0.00 0.00 0.00 35 1019.5
20210921234325 82 356 6.0 20.0 0.00 0.00 0.00 35 1019.5
20210921233823 82 18 8.0 17.0 0.00 0.00 0.00 36 1019.4
20210921233318 82 354 6.0 16.0 0.00 0.00 0.00 36 1019.3
20210921232813 82 28 4.0 19.0 0.00 0.00 0.00 37 1019.3
20210921232327 82 9 10.0 19.0 0.00 0.00 0.00 36 1019.2
20210921231822 83 18 10.0 19.0 0.00 0.00 0.00 36 1019.1
20210921231316 83 28 2.0 13.0 0.00 0.00 0.00 38 1019.0
20210921230832 83 6 4.0 13.0 0.00 0.00 0.00 38 1018.9
20210921230331 83 54 4.0 15.0 0.00 0.00 0.00 37 1019.0
20210921225825 83 345 8.0 16.0 0.00 0.00 0.00 37 1018.9
20210921225319 83 352 8.0 17.0 0.00 0.00 0.00 38 1018.9
20210921224815 83 18 5.0 20.0 0.00 0.00 0.00 38 1018.9
20210921224331 83 7 9.0 17.0 0.00 0.00 0.00 38 1018.9
20210921223826 84 32 9.0 17.0 0.00 0.00 0.00 39 1018.8
20210921223322 84 18 8.0 20.0 0.00 0.00 0.00 39 1018.6
20210921222822 84 3 10.0 20.0 0.00 0.00 0.00 39 1018.6
20210921222317 84 9 5.0 14.0 0.00 0.00 0.00 40 1018.5
20210921221831 84 327 7.0 17.0 0.00 0.00 0.00 40 1018.4
20210921221323 84 4 9.0 17.0 0.00 0.00 0.00 40 1018.5
20210921220819 84 352 9.0 21.0 0.00 0.00 0.00 38 1018.4
20210921220315 84 5 3.0 19.0 0.00 0.00 0.00 39 1018.4
20210921215830 84 348 9.0 19.0 0.00 0.00 0.00 39 1018.5
20210921215324 84 354 10.0 19.0 0.00 0.00 0.00 41 1018.5
20210921214823 84 357 5.0 17.0 0.00 0.00 0.00 40 1018.5
20210921214319 84 351 8.0 23.0 0.00 0.00 0.00 40 1018.5
20210921213815 85 348 12.0 23.0 0.00 0.00 0.00 38 1018.5
20210921213331 85 356 4.0 18.0 0.00 0.00 0.00 41 1018.4
20210921212823 85 356 8.0 20.0 0.00 0.00 0.00 41 1018.4
20210921212318 85 357 6.0 20.0 0.00 0.00 0.00 40 1018.2
20210921211831 85 3 6.0 17.0 0.00 0.00 0.00 41 1018.1
20210921211331 85 3 7.0 19.0 0.00 0.00 0.00 41 1018.1
20210921210825 85 6 11.0 18.0 0.00 0.00 0.00 40 1018.2
20210921210320 84 356 6.0 19.0 0.00 0.00 0.00 41 1018.2
20210921205815 84 358 13.0 19.0 0.00 0.00 0.00 41 1018.2
20210921205331 84 1 10.0 20.0 0.00 0.00 0.00 42 1018.2
20210921204826 84 356 11.0 21.0 0.00 0.00 0.00 42 1018.3
20210921204320 85 348 13.0 20.0 0.00 0.00 0.00 41 1018.3
20210921203818 85 346 2.0 19.0 0.00 0.00 0.00 43 1018.2
20210921203335 85 356 8.0 17.0 0.00 0.00 0.00 42 1018.3
20210921202829 85 358 4.0 17.0 0.00 0.00 0.00 42 1018.3
20210921202321 85 354 3.0 17.0 0.00 0.00 0.00 43 1018.2
20210921201817 85 356 3.0 17.0 0.00 0.00 0.00 43 1018.2
20210921201330 85 354 4.0 14.0 0.00 0.00 0.00 43 1018.2
20210921200825 85 354 1.0 16.0 0.00 0.00 0.00 44 1018.1
20210921200322 85 354 7.0 15.0 0.00 0.00 0.00 43 1018.1
20210921195821 84 354 2.0 20.0 0.00 0.00 0.00 45 1018.0
20210921195316 84 355 11.0 20.0 0.00 0.00 0.00 44 1018.1
20210921194831 84 357 0.0 13.0 0.00 0.00 0.00 45 1018.1
20210921194325 84 357 1.0 15.0 0.00 0.00 0.00 46 1018.1
20210921193820 84 358 8.0 15.0 0.00 0.00 0.00 46 1018.2
20210921193316 84 1 0.0 12.0 0.00 0.00 0.00 47 1018.2
20210921192831 83 1 3.0 13.0 0.00 0.00 0.00 49 1018.2
20210921192330 83 3 3.0 14.0 0.00 0.00 0.00 50 1018.2
20210921191824 83 4 3.0 17.0 0.00 0.00 0.00 51 1018.4
20210921191320 83 5 4.0 17.0 0.00 0.00 0.00 51 1018.4
20210921190815 83 9 3.0 17.0 0.00 0.00 0.00 51 1018.4
20210921190332 84 9 1.0 13.0 0.00 0.00 0.00 52 1018.3
20210921185825 83 9 3.0 12.0 0.00 0.00 0.00 52 1018.4
20210921185321 83 9 0.0 12.0 0.00 0.00 0.00 52 1018.4
20210921184820 83 9 1.0 14.0 0.00 0.00 0.00 53 1018.4
20210921184316 83 9 2.0 14.0 0.00 0.00 0.00 53 1018.4
20210921183832 83 9 5.0 16.0 0.00 0.00 0.00 52 1018.4
20210921183328 83 10 5.0 14.0 0.00 0.00 0.00 53 1018.4
20210921182822 83 11 2.0 13.0 0.00 0.00 0.00 53 1018.5
20210921182317 83 12 5.0 13.0 0.00 0.00 0.00 53 1018.4
20210921181831 83 12 0.0 13.0 0.00 0.00 0.00 54 1018.4
20210921181325 83 12 4.0 13.0 0.00 0.00 0.00 53 1018.4
20210921180826 83 13 4.0 14.0 0.00 0.00 0.00 53 1018.5
20210921180318 83 13 4.0 16.0 0.00 0.00 0.00 53 1018.4
20210921175834 83 13 5.0 16.0 0.00 0.00 0.00 54 1018.5
20210921175328 83 14 4.0 11.0 0.00 0.00 0.00 53 1018.6
20210921174820 83 14 3.0 11.0 0.00 0.00 0.00 54 1018.5
20210921174316 82 14 5.0 13.0 0.00 0.00 0.00 54 1018.6
20210921173831 82 14 3.0 13.0 0.00 0.00 0.00 54 1018.6
20210921173329 82 18 1.0 13.0 0.00 0.00 0.00 55 1018.5
20210921172824 82 14 4.0 13.0 0.00 0.00 0.00 55 1018.5
20210921172318 82 18 1.0 12.0 0.00 0.00 0.00 56 1018.5
20210921171834 81 18 2.0 12.0 0.00 0.00 0.00 57 1018.6
20210921171326 81 14 3.0 16.0 0.00 0.00 0.00 57 1018.5
20210921170820 81 18 3.0 16.0 0.00 0.00 0.00 58 1018.5
20210921170317 80 18 3.0 15.0 0.00 0.00 0.00 59 1018.4
20210921165816 80 18 0.0 15.0 0.00 0.00 0.00 59 1018.3
20210921165332 79 18 5.0 15.0 0.00 0.00 0.00 60 1018.4
20210921164827 79 18 6.0 14.0 0.00 0.00 0.00 59 1018.5
20210921164320 79 18 8.0 14.0 0.00 0.00 0.00 59 1018.4
20210921163815 79 18 2.0 16.0 0.00 0.00 0.00 60 1018.3
20210921163332 78 18 1.0 16.0 0.00 0.00 0.00 61 1018.3
20210921162824 78 18 2.0 19.0 0.00 0.00 0.00 61 1018.3
20210921162319 77 23 8.0 19.0 0.00 0.00 0.00 61 1018.4
20210921161817 77 40 11.0 17.0 0.00 0.00 0.00 61 1018.4
20210921161334 77 51 6.0 15.0 0.00 0.00 0.00 61 1018.3
20210921160826 77 57 9.0 15.0 0.00 0.00 0.00 62 1018.2
20210921160323 77 65 6.0 14.0 0.00 0.00 0.00 62 1018.3
20210921155818 77 65 7.0 11.0 0.00 0.00 0.00 63 1018.3
20210921155315 76 65 4.0 10.0 0.00 0.00 0.00 63 1018.2
20210921154829 76 65 3.0 12.0 0.00 0.00 0.00 62 1018.1
20210921154329 75 65 1.0 16.0 0.00 0.00 0.00 64 1018.2
20210921153824 74 65 9.0 16.0 0.00 0.00 0.00 64 1018.3
20210921153320 75 75 8.0 15.0 0.00 0.00 0.00 64 1018.2
20210921152815 75 78 4.0 11.0 0.00 0.00 0.00 65 1018.1
20210921152330 75 78 0.0 15.0 0.00 0.00 0.00 64 1017.9
20210921151824 75 78 6.0 15.0 0.00 0.00 0.00 64 1017.8
20210921151319 75 80 7.0 12.0 0.00 0.00 0.00 64 1017.6
20210921150819 75 80 1.0 11.0 0.00 0.00 0.00 65 1017.7
20210921150315 75 80 2.0 16.0 0.00 0.00 0.00 65 1017.6
20210921145829 75 80 2.0 16.0 0.00 0.00 0.00 65 1017.4
20210921145322 76 83 4.0 14.0 0.00 0.00 0.00 65 1017.2
20210921144817 76 85 5.0 13.0 0.00 0.00 0.00 66 1017.1
20210921144334 76 85 4.0 14.0 0.00 0.00 0.00 65 1017.1
20210921143825 76 88 7.0 14.0 0.00 0.00 0.00 66 1017.0
20210921143321 76 92 3.0 15.0 0.00 0.00 0.00 66 1016.9
20210921142821 77 99 4.0 15.0 0.00 0.00 0.00 66 1016.7
20210921142315 77 102 4.0 13.0 0.00 0.00 0.00 67 1016.5
20210921141828 77 112 1.0 12.0 0.00 0.00 0.00 69 1016.4
20210921141322 77 112 4.0 16.0 0.00 0.00 0.00 70 1016.3
20210921140817 77 113 8.0 16.0 0.00 0.00 0.00 71 1016.1
20210921140316 78 121 6.0 15.0 0.00 0.00 0.00 72 1016.0
20210921135830 79 143 5.0 15.0 0.00 0.00 0.00 77 1015.9
20210921135327 79 168 0.0 4.0 0.00 0.00 0.00 83 1015.8
20210921134822 78 168 0.0 4.0 0.00 0.00 0.00 83 1015.7
20210921134317 77 168 1.0 2.0 0.00 0.00 0.00 84 1015.6
20210921133832 77 168 0.0 0.0 0.00 0.00 0.00 85 1015.4
20210921133325 77 168 0.0 1.0 0.00 0.00 0.00 85 1015.4
20210921132820 77 168 0.0 1.0 0.00 0.00 0.00 85 1015.4
20210921132315 77 168 0.0 1.0 0.00 0.00 0.00 86 1015.3
20210921131814 76 168 0.0 0.0 0.00 0.00 0.00 86 1015.2
20210921131329 76 168 0.0 0.0 0.00 0.00 0.00 86 1015.1
20210921130824 76 168 0.0 0.0 0.00 0.00 0.00 86 1015.0
20210921130319 76 168 0.0 1.0 0.00 0.00 0.00 86 1014.9
20210921125813 76 168 0.0 2.0 0.00 0.00 0.00 85 1014.9
20210921125328 76 168 0.0 1.0 0.00 0.00 0.00 85 1014.7
20210921124823 76 168 0.0 0.0 0.00 0.00 0.00 85 1014.7
20210921124319 76 168 0.0 7.0 0.00 0.00 0.00 85 1014.5
20210921123819 76 168 0.0 7.0 0.00 0.00 0.00 85 1014.2
20210921123315 76 168 2.0 4.0 0.00 0.00 0.00 86 1014.3
20210921122829 76 168 2.0 4.0 0.00 0.00 0.00 86 1014.2
20210921122326 76 168 2.0 3.0 0.00 0.00 0.00 86 1014.2
20210921121820 76 168 1.0 2.0 0.00 0.00 0.00 86 1014.1
20210921121316 76 168 0.0 0.0 0.00 0.00 0.00 86 1014.0
20210921120831 76 168 0.0 0.0 0.00 0.00 0.00 86 1013.9
20210921120331 76 168 0.0 0.0 0.00 0.00 0.00 85 1013.9
20210921115826 76 168 0.0 0.0 0.00 0.00 0.00 85 1013.8
20210921115322 76 168 0.0 0.0 0.00 0.00 0.00 86 1013.8
20210921114817 76 168 0.0 0.0 0.00 0.00 0.00 85 1013.6
20210921114314 76 168 0.0 0.0 0.00 0.00 0.00 85 1013.5
20210921113828 76 168 0.0 0.0 0.00 0.00 0.00 85 1013.4
20210921113325 76 168 0.0 0.0 0.00 0.00 0.00 84 1013.3
20210921112823 77 168 0.0 0.0 0.00 0.00 0.00 84 1013.2
20210921112319 77 168 0.0 0.0 0.00 0.00 0.00 84 1013.1
20210921111815 77 168 0.0 0.0 0.00 0.00 0.00 84 1013.0
20210921111330 77 168 0.0 0.0 0.00 0.00 0.00 84 1012.9
20210921110826 77 168 0.0 0.0 0.00 0.00 0.00 84 1012.9
20210921110319 77 168 0.0 0.0 0.00 0.00 0.00 83 1012.9
20210921105815 77 168 0.0 0.0 0.00 0.00 0.00 83 1012.7
20210921105316 77 168 0.0 0.0 0.00 0.00 0.00 83 1012.6
20210921104832 77 168 0.0 0.0 0.00 0.00 0.00 83 1012.5
20210921104326 77 168 0.0 2.0 0.00 0.00 0.00 83 1012.4
20210921103822 77 168 0.0 2.0 0.00 0.00 0.00 82 1012.2
20210921103319 77 168 0.0 1.0 0.00 0.00 0.00 82 1012.2
20210921102814 77 168 0.0 3.0 0.00 0.00 0.00 82 1012.0
20210921102330 77 168 2.0 3.0 0.00 0.00 0.00 81 1012.0
20210921101823 77 168 0.0 4.0 0.00 0.00 0.00 81 1011.9
20210921101321 77 168 2.0 4.0 0.00 0.00 0.00 80 1011.9
20210921100815 78 168 1.0 3.0 0.00 0.00 0.00 80 1011.8
20210921100332 78 168 0.0 2.0 0.00 0.00 0.00 80 1011.7
20210921095826 78 168 1.0 2.0 0.00 0.00 0.00 80 1011.7
20210921095322 78 168 1.0 2.0 0.00 0.00 0.00 80 1011.6
20210921094818 78 168 1.0 3.0 0.00 0.00 0.00 80 1011.6
20210921094315 78 168 1.0 3.0 0.00 0.00 0.00 79 1011.5
20210921093815 78 168 1.0 4.0 0.00 0.00 0.00 79 1011.4
20210921093329 78 168 1.0 4.0 0.00 0.00 0.00 79 1011.4
20210921092825 78 168 1.0 3.0 0.00 0.00 0.00 79 1011.4
20210921092321 78 168 0.0 3.0 0.00 0.00 0.00 79 1011.3
20210921091815 78 168 1.0 3.0 0.00 0.00 0.00 79 1011.1
20210921091330 78 168 0.0 0.0 0.00 0.00 0.00 79 1011.2
20210921090823 78 168 0.0 3.0 0.00 0.00 0.00 79 1011.1
20210921090322 78 168 0.0 5.0 0.00 0.00 0.00 79 1011.2
20210921085818 78 168 3.0 5.0 0.00 0.00 0.00 79 1011.0
20210921085315 78 168 2.0 4.0 0.00 0.00 0.00 79 1011.1
20210921084829 78 168 2.0 5.0 0.00 0.00 0.00 79 1011.2
20210921084325 78 168 2.0 5.0 0.00 0.00 0.00 79 1011.1
20210921083821 78 168 2.0 5.0 0.00 0.00 0.00 79 1011.1
20210921083317 78 168 2.0 5.0 0.00 0.00 0.00 78 1011.1
20210921082816 78 168 0.0 2.0 0.00 0.00 0.00 78 1011.0
20210921082332 78 168 0.0 3.0 0.00 0.00 0.00 78 1011.1
20210921081824 78 168 1.0 3.0 0.00 0.00 0.00 78 1011.0
20210921081320 78 168 2.0 4.0 0.00 0.00 0.00 78 1011.1
20210921080816 78 168 2.0 4.0 0.00 0.00 0.00 78 1011.1
20210921080333 78 168 0.0 2.0 0.00 0.00 0.00 78 1011.1
20210921075825 78 168 1.0 4.0 0.00 0.00 0.00 78 1011.0
20210921075322 78 168 2.0 4.0 0.00 0.00 0.00 77 1010.9
20210921074822 78 168 1.0 3.0 0.00 0.00 0.00 77 1010.9
20210921074316 78 168 2.0 4.0 0.00 0.00 0.00 77 1010.8
20210921073833 78 168 1.0 4.0 0.00 0.00 0.00 77 1010.7
20210921073327 78 168 2.0 4.0 0.00 0.00 0.00 76 1010.7
20210921072823 79 168 0.0 3.0 0.00 0.00 0.00 76 1010.7
20210921072318 79 168 1.0 5.0 0.00 0.00 0.00 76 1010.6
20210921071815 79 168 2.0 5.0 0.00 0.00 0.00 75 1010.5
20210921071333 79 168 3.0 4.0 0.00 0.00 0.00 75 1010.5
20210921070826 79 168 1.0 3.0 0.00 0.00 0.00 74 1010.5
20210921070322 80 168 1.0 4.0 0.00 0.00 0.00 73 1010.5
20210921065818 80 168 2.0 4.0 0.00 0.00 0.00 72 1010.4
20210921065314 80 168 1.0 3.0 0.00 0.00 0.00 72 1010.3
20210921064830 81 168 0.0 5.0 0.00 0.00 0.00 71 1010.4
20210921064323 81 168 3.0 7.0 0.00 0.00 0.00 71 1010.5
20210921063822 81 168 0.0 8.0 0.00 0.00 0.00 70 1010.3
20210921063319 81 168 3.0 11.0 0.00 0.00 0.00 70 1010.3
20210921062814 81 168 4.0 11.0 0.00 0.00 0.00 69 1010.3
20210921062329 82 168 4.0 10.0 0.00 0.00 0.00 69 1010.4
20210921061823 82 168 2.0 9.0 0.00 0.00 0.00 69 1010.5
20210921061318 82 168 2.0 9.0 0.00 0.00 0.00 69 1010.4
20210921060815 82 168 1.0 8.0 0.00 0.00 0.00 68 1010.4
20210921060315 82 168 1.0 7.0 0.00 0.00 0.00 68 1010.4
20210921055830 82 168 1.0 7.0 0.00 0.00 0.00 68 1010.4
20210921055325 82 168 2.0 10.0 0.00 0.00 0.00 68 1010.3
20210921054821 82 168 2.0 10.0 0.00 0.00 0.00 67 1010.3
20210921054317 83 168 0.0 10.0 0.00 0.00 0.00 67 1010.2
20210921053834 83 168 1.0 11.0 0.00 0.00 0.00 67 1010.2
20210921053327 83 168 4.0 11.0 0.00 0.00 0.00 66 1010.1
20210921052823 83 168 5.0 11.0 0.00 0.00 0.00 66 1010.1
20210921052323 83 168 3.0 10.0 0.00 0.00 0.00 66 1010.1
20210921051817 83 168 5.0 10.0 0.00 0.00 0.00 65 1010.1
20210921051315 83 168 4.0 11.0 0.00 0.00 0.00 65 1010.0
20210921050831 84 168 5.0 11.0 0.00 0.00 0.00 64 1009.9
20210921050324 84 168 4.0 9.0 0.00 0.00 0.00 64 1009.9
20210921045818 84 168 2.0 10.0 0.00 0.00 0.00 64 1010.0
20210921045315 84 168 2.0 9.0 0.00 0.00 0.00 64 1010.0
20210921044833 84 168 4.0 9.0 0.00 0.00 0.00 63 1010.0
20210921044327 84 168 4.0 11.0 0.00 0.00 0.00 63 1009.8
20210921043823 84 168 7.0 11.0 0.00 0.00 0.00 63 1009.8
20210921043319 84 168 3.0 9.0 0.00 0.00 0.00 63 1009.7
20210921042813 84 168 4.0 10.0 0.00 0.00 0.00 63 1009.7
20210921042329 84 168 5.0 10.0 0.00 0.00 0.00 63 1009.7
20210921041824 84 168 4.0 9.0 0.00 0.00 0.00 63 1009.6
20210921041324 84 168 5.0 9.0 0.00 0.00 0.00 63 1009.7
20210921040819 84 168 4.0 9.0 0.00 0.00 0.00 63 1009.7
20210921040315 84 168 3.0 8.0 0.00 0.00 0.00 63 1009.8
20210921035832 84 168 4.0 8.0 0.00 0.00 0.00 63 1009.7
20210921035326 84 168 3.0 9.0 0.00 0.00 0.00 62 1009.8
20210921034821 84 168 5.0 12.0 0.00 0.00 0.00 62 1009.7
20210921034316 84 168 6.0 12.0 0.00 0.00 0.00 62 1009.8
20210921033816 84 168 1.0 10.0 0.00 0.00 0.00 62 1009.7
20210921033333 84 168 4.0 10.0 0.00 0.00 0.00 62 1009.6
20210921032826 84 168 4.0 8.0 0.00 0.00 0.00 61 1009.5
20210921032322 85 168 3.0 8.0 0.00 0.00 0.00 61 1009.5
20210921031816 85 168 0.0 7.0 0.00 0.00 0.00 60 1009.5
20210921031333 85 168 3.0 7.0 0.00 0.00 0.00 59 1009.4
20210921030827 85 168 3.0 5.0 0.00 0.00 0.00 59 1009.4
20210921030323 85 168 0.0 7.0 0.00 0.00 0.00 58 1009.4
20210921025822 85 168 1.0 5.0 0.00 0.00 0.00 58 1009.3
20210921025317 85 168 2.0 7.0 0.00 0.00 0.00 57 1009.2
20210921024815 85 168 3.0 7.0 0.00 0.00 0.00 57 1009.3
20210921024331 85 168 0.0 5.0 0.00 0.00 0.00 56 1009.3
20210921023824 86 168 1.0 9.0 0.00 0.00 0.00 56 1009.2
20210921023315 86 168 3.0 9.0 0.00 0.00 0.00 56 1009.1
20210921022830 86 168 1.0 4.0 0.00 0.00 0.00 55 1009.0
20210921022328 86 168 0.0 3.0 0.00 0.00 0.00 55 1009.1
20210921021824 86 168 0.0 2.0 0.00 0.00 0.00 55 1009.0
20210921021320 86 168 0.0 7.0 0.00 0.00 0.00 55 1008.8
20210921020816 87 168 3.0 7.0 0.00 0.00 0.00 54 1008.8
20210921020312 87 168 1.0 7.0 0.00 0.00 0.00 54 1008.7
20210921015828 87 168 0.0 7.0 0.00 0.00 0.00 54 1008.7